createdAt,value
2023-04-15T00:00:00.719Z,7.90
2023-04-15T00:02:33.450Z,7.90
2023-04-15T00:05:07.617Z,7.90
2023-04-15T00:07:35.288Z,7.80
2023-04-15T00:10:07.269Z,7.80
2023-04-15T00:12:38.416Z,7.70
2023-04-15T00:15:13.189Z,7.70
2023-04-15T00:17:42.640Z,7.70
2023-04-15T00:20:10.487Z,7.60
2023-04-15T00:22:40.950Z,7.60
2023-04-15T00:25:08.675Z,7.60
2023-04-15T00:27:44.124Z,7.50
2023-04-15T00:30:25.049Z,7.40
2023-04-15T00:32:56.757Z,7.50
2023-04-15T00:35:33.213Z,7.50
2023-04-15T00:38:07.117Z,7.40
2023-04-15T00:40:37.289Z,7.50
2023-04-15T01:03:13.181Z,7.60
2023-04-15T01:05:43.887Z,7.70
2023-04-15T01:08:21.196Z,7.70
2023-04-15T01:19:57.708Z,7.70
2023-04-15T01:40:21.629Z,7.90
2023-04-15T01:48:51.737Z,7.90
2023-04-15T01:55:11.962Z,7.80
2023-04-15T02:07:38.613Z,7.70
2023-04-15T02:25:10.991Z,7.50
2023-04-15T02:33:38.163Z,7.50
2023-04-15T02:36:39.287Z,7.60
2023-04-15T02:39:16.827Z,7.50
2023-04-15T02:47:40.420Z,7.50
2023-04-15T02:58:23.575Z,7.40
2023-04-15T03:01:10.713Z,7.40
2023-04-15T03:03:41.281Z,7.40
2023-04-15T03:06:10.091Z,7.40
2023-04-15T03:09:04.846Z,7.40
2023-04-15T03:11:37.147Z,7.40
2023-04-15T03:17:11.657Z,7.50
2023-04-15T03:20:26.473Z,7.40
2023-04-15T03:34:31.745Z,7.40
2023-04-15T03:37:32.759Z,7.60
2023-04-15T03:40:02.494Z,7.40
2023-04-15T03:42:41.296Z,7.40
2023-04-15T03:47:53.239Z,7.50
2023-04-15T03:50:32.027Z,7.50
2023-04-15T04:06:46.671Z,7.50
2023-04-15T04:18:42.084Z,7.50
2023-04-15T04:21:20.194Z,7.50
2023-04-15T04:23:55.755Z,7.50
2023-04-15T04:26:24.413Z,7.50
2023-04-15T04:29:04.076Z,7.50
2023-04-15T04:31:36.609Z,7.60
2023-04-15T04:34:11.962Z,7.50
2023-04-15T04:37:03.496Z,7.50
2023-04-15T04:39:44.016Z,7.50
2023-04-15T04:42:44.073Z,7.50
2023-04-15T04:45:16.950Z,7.60
2023-04-15T04:47:51.459Z,7.50
2023-04-15T04:50:24.111Z,7.60
2023-04-15T04:53:05.126Z,7.60
2023-04-15T04:55:37.174Z,7.60
2023-04-15T04:58:07.124Z,7.60
2023-04-15T05:00:43.099Z,7.60
2023-04-15T05:03:23.724Z,7.60
2023-04-15T05:05:55.677Z,7.60
2023-04-15T05:08:34.076Z,7.60
2023-04-15T05:17:30.639Z,7.60
2023-04-15T05:19:59.722Z,7.60
2023-04-15T05:23:01.361Z,7.60
2023-04-15T05:28:17.724Z,7.60
2023-04-15T05:30:56.960Z,7.70
2023-04-15T05:33:29.265Z,7.70
2023-04-15T05:36:14.738Z,7.70
2023-04-15T05:38:53.317Z,7.70
2023-04-15T05:41:34.815Z,7.70
2023-04-15T05:44:04.388Z,7.80
2023-04-15T05:46:51.149Z,7.70
2023-04-15T05:52:21.007Z,7.80
2023-04-15T05:54:48.611Z,7.80
2023-04-15T05:57:26.417Z,7.90
2023-04-15T05:59:59.814Z,7.90
2023-04-15T06:02:48.389Z,7.90
2023-04-15T06:05:19.612Z,7.90
2023-04-15T06:07:50.830Z,7.90
2023-04-15T06:10:23.677Z,8.00
2023-04-15T06:12:57.963Z,8.00
2023-04-15T06:15:30.024Z,8.00
2023-04-15T06:17:57.280Z,7.90
2023-04-15T06:20:29.179Z,8.00
2023-04-15T06:23:44.417Z,8.10
2023-04-15T06:26:14.537Z,8.00
2023-04-15T06:28:46.090Z,8.00
2023-04-15T06:31:13.465Z,8.10
2023-04-15T06:33:40.958Z,8.10
2023-04-15T06:36:16.660Z,8.10
2023-04-15T06:38:46.149Z,8.20
2023-04-15T06:41:15.407Z,8.10
2023-04-15T06:43:51.506Z,8.20
2023-04-15T06:46:19.155Z,8.20
2023-04-15T06:48:51.336Z,8.50
2023-04-15T06:51:21.305Z,8.30
2023-04-15T06:56:48.028Z,8.40
2023-04-15T06:59:18.012Z,8.30
2023-04-15T07:01:54.519Z,8.40
2023-04-15T07:04:23.914Z,8.40
2023-04-15T07:06:52.241Z,8.40
2023-04-15T07:09:20.015Z,8.40
2023-04-15T07:12:25.803Z,8.40
2023-04-15T07:15:12.917Z,8.50
2023-04-15T07:17:46.943Z,8.60
2023-04-15T07:20:16.590Z,8.60
2023-04-15T07:22:43.791Z,8.70
2023-04-15T07:25:23.436Z,8.70
2023-04-15T07:27:53.723Z,8.70
2023-04-15T07:30:20.961Z,8.70
2023-04-15T07:32:53.945Z,8.70
2023-04-15T07:35:21.896Z,8.70
2023-04-15T07:38:17.259Z,8.70
2023-04-15T07:40:42.746Z,8.70
2023-04-15T07:46:34.504Z,8.70
2023-04-15T07:49:10.685Z,8.80
2023-04-15T07:54:29.116Z,8.60
2023-04-15T07:56:59.441Z,8.60
2023-04-15T07:59:29.172Z,8.60
2023-04-15T08:02:01.398Z,8.70
2023-04-15T08:04:31.514Z,8.70
2023-04-15T08:06:59.274Z,8.70
2023-04-15T08:09:31.892Z,8.70
2023-04-15T08:12:01.514Z,8.70
2023-04-15T08:14:36.238Z,8.80
2023-04-15T08:17:29.524Z,8.80
2023-04-15T08:19:57.811Z,8.90
2023-04-15T08:22:26.512Z,8.80
2023-04-15T08:24:54.116Z,8.90
2023-04-15T08:27:23.832Z,9.10
2023-04-15T08:29:54.044Z,9.20
2023-04-15T08:32:31.874Z,9.10
2023-04-15T08:35:15.439Z,9.20
2023-04-15T08:37:46.949Z,9.20
2023-04-15T08:44:02.134Z,9.30
2023-04-15T08:47:15.241Z,9.40
2023-04-15T08:50:16.677Z,9.50
2023-04-15T08:52:50.300Z,9.60
2023-04-15T08:55:32.945Z,9.70
2023-04-15T08:58:28.246Z,9.70
2023-04-15T09:01:18.861Z,9.70
2023-04-15T09:03:47.183Z,9.80
2023-04-15T09:06:29.495Z,9.90
2023-04-15T09:09:15.117Z,10.00
2023-04-15T09:11:50.534Z,10.10
2023-04-15T09:14:43.642Z,10.20
2023-04-15T09:17:17.631Z,10.20
2023-04-15T09:19:47.434Z,10.30
2023-04-15T09:22:25.640Z,10.40
2023-04-15T09:24:56.124Z,10.40
2023-04-15T09:27:36.068Z,10.50
2023-04-15T09:30:13.557Z,10.50
2023-04-15T09:32:57.953Z,10.60
2023-04-15T09:35:25.199Z,10.70
2023-04-15T09:38:21.932Z,10.70
2023-04-15T09:43:48.671Z,10.80
2023-04-15T09:46:21.800Z,10.80
2023-04-15T09:49:21.093Z,10.80
2023-04-15T09:52:04.557Z,10.90
2023-04-15T09:54:39.941Z,10.90
2023-04-15T09:57:17.899Z,11.10
2023-04-15T09:59:52.579Z,11.20
2023-04-15T10:02:23.505Z,11.50
2023-04-15T10:05:05.450Z,11.60
2023-04-15T10:07:42.974Z,11.70
2023-04-15T10:10:24.490Z,11.80
2023-04-15T10:13:11.931Z,11.80
2023-04-15T10:15:44.910Z,11.70
2023-04-15T10:18:18.001Z,11.70
2023-04-15T10:20:47.871Z,11.80
2023-04-15T10:23:18.983Z,11.80
2023-04-15T10:37:34.173Z,11.70
2023-04-15T10:41:13.814Z,11.70
2023-04-15T10:47:06.899Z,11.50
2023-04-15T10:49:50.907Z,11.60
2023-04-15T10:52:22.113Z,11.50
2023-04-15T10:54:49.204Z,11.50
2023-04-15T10:57:40.170Z,11.40
2023-04-15T11:00:17.928Z,11.40
2023-04-15T11:02:56.230Z,11.50
2023-04-15T11:05:50.156Z,11.40
2023-04-15T11:08:21.113Z,11.30
2023-04-15T11:10:50.348Z,11.60
2023-04-15T11:13:23.123Z,11.90
2023-04-15T11:16:07.706Z,12.20
2023-04-15T11:18:53.004Z,12.70
2023-04-15T11:21:20.042Z,13.40
2023-04-15T11:23:47.743Z,13.70
2023-04-15T11:26:16.004Z,14.10
2023-04-15T11:28:45.248Z,14.50
2023-04-15T11:31:19.619Z,14.80
2023-04-15T11:34:00.184Z,15.20
2023-04-15T11:36:28.877Z,15.50
2023-04-15T11:38:56.467Z,15.90
2023-04-15T11:41:24.098Z,16.10
2023-04-15T11:43:51.782Z,16.30
2023-04-15T11:46:21.754Z,16.60
2023-04-15T11:48:49.146Z,16.90
2023-04-15T11:51:16.249Z,16.90
2023-04-15T11:57:07.591Z,16.50
2023-04-15T11:59:47.897Z,16.60
2023-04-15T12:02:15.073Z,16.80
2023-04-15T12:04:52.564Z,16.70
2023-04-15T12:07:19.688Z,16.80
2023-04-15T12:09:54.236Z,17.00
2023-04-15T12:12:33.671Z,17.00
2023-04-15T12:15:05.340Z,16.90
2023-04-15T12:17:52.131Z,17.10
2023-04-15T12:20:28.597Z,17.20
2023-04-15T12:23:10.543Z,17.70
2023-04-15T12:25:37.717Z,17.60
2023-04-15T12:28:11.519Z,17.40
2023-04-15T12:30:57.228Z,17.40
2023-04-15T12:33:33.163Z,17.30
2023-04-15T12:36:00.238Z,17.40
2023-04-15T12:38:30.166Z,17.70
2023-04-15T12:41:00.655Z,17.90
2023-04-15T12:43:29.210Z,18.00
2023-04-15T12:45:58.961Z,18.00
2023-04-15T12:48:26.355Z,17.80
2023-04-15T12:51:18.173Z,17.80
2023-04-15T12:53:44.426Z,18.10
2023-04-15T12:56:23.564Z,18.60
2023-04-15T12:58:51.679Z,18.90
2023-04-15T13:01:21.248Z,19.20
2023-04-15T13:03:51.318Z,19.40
2023-04-15T13:09:24.729Z,19.10
2023-04-15T13:11:56.764Z,18.40
2023-04-15T13:14:36.287Z,18.00
2023-04-15T13:17:09.094Z,17.50
2023-04-15T13:19:40.023Z,17.10
2023-04-15T13:22:11.947Z,16.90
2023-04-15T13:24:39.568Z,16.90
2023-04-15T13:27:08.603Z,16.90
2023-04-15T13:32:19.505Z,17.40
2023-04-15T13:34:52.983Z,17.70
2023-04-15T13:37:20.055Z,18.10
2023-04-15T13:39:50.165Z,18.60
2023-04-15T13:42:20.659Z,19.00
2023-04-15T13:44:47.718Z,19.40
2023-04-15T13:47:17.017Z,19.50
2023-04-15T13:49:48.629Z,19.60
2023-04-15T13:52:16.104Z,19.60
2023-04-15T13:54:43.458Z,19.40
2023-04-15T13:57:16.541Z,19.30
2023-04-15T13:59:44.754Z,19.10
2023-04-15T14:02:12.659Z,18.80
2023-04-15T14:04:39.676Z,18.50
2023-04-15T14:07:06.694Z,18.10
2023-04-15T14:09:57.503Z,17.80
2023-04-15T14:12:24.839Z,17.50
2023-04-15T14:14:51.793Z,17.40
2023-04-15T15:10:49.402Z,21.40
2023-04-15T15:13:25.598Z,20.80
2023-04-15T15:15:52.966Z,20.40
2023-04-15T15:18:20.144Z,20.10
2023-04-15T15:20:48.708Z,19.70
2023-04-15T15:23:16.076Z,19.50
2023-04-15T15:25:44.404Z,19.10
2023-04-15T15:28:11.774Z,18.60
2023-04-15T15:30:38.616Z,18.30
2023-04-15T15:33:05.814Z,17.90
2023-04-15T15:35:32.826Z,17.60
2023-04-15T15:38:01.341Z,17.30
2023-04-15T15:40:28.884Z,17.30
2023-04-15T15:42:56.825Z,17.40
2023-04-15T15:45:24.092Z,17.40
2023-04-15T15:47:52.516Z,17.50
2023-04-15T15:50:19.496Z,17.70
2023-04-15T15:52:46.627Z,17.70
2023-04-15T15:55:13.609Z,17.80
2023-04-15T15:57:41.011Z,17.90
2023-04-15T16:00:13.019Z,17.80
2023-04-15T16:03:05.165Z,17.60
2023-04-15T16:05:29.960Z,17.40
2023-04-15T16:07:56.875Z,17.30
2023-04-15T16:10:27.300Z,17.20
2023-04-15T16:12:54.499Z,17.10
2023-04-15T16:15:22.330Z,17.10
2023-04-15T16:17:49.441Z,17.20
2023-04-15T16:20:16.837Z,17.20
2023-04-15T16:22:44.000Z,17.30
2023-04-15T16:25:11.548Z,17.40
2023-04-15T16:30:09.456Z,17.30
2023-04-15T16:32:37.441Z,17.10
2023-04-15T16:35:04.630Z,16.80
2023-04-15T16:37:33.271Z,16.50
2023-04-15T16:40:00.594Z,16.30
2023-04-15T16:42:27.645Z,16.00
2023-04-15T16:44:56.608Z,15.80
2023-04-15T16:47:33.348Z,15.60
2023-04-15T16:50:00.663Z,15.50
2023-04-15T16:52:28.814Z,15.30
2023-04-15T16:54:56.392Z,15.10
2023-04-15T16:57:50.737Z,15.00
2023-04-15T17:00:19.367Z,14.80
2023-04-15T17:02:47.371Z,14.70
2023-04-15T17:05:26.477Z,14.60
2023-04-15T17:11:00.897Z,14.30
2023-04-15T17:13:41.901Z,14.20
2023-04-15T17:19:03.338Z,13.80
2023-04-15T17:21:37.741Z,13.70
2023-04-15T17:24:10.767Z,13.60
2023-04-15T17:26:41.953Z,13.60
2023-04-15T17:29:08.807Z,13.40
2023-04-15T17:31:47.644Z,13.30
2023-04-15T17:37:09.034Z,13.10
2023-04-15T17:39:35.857Z,13.20
2023-04-15T17:42:02.745Z,13.20
2023-04-15T17:44:29.928Z,13.10
2023-04-15T17:46:57.337Z,13.10
2023-04-15T17:49:30.968Z,13.00
2023-04-15T17:51:58.290Z,13.00
2023-04-15T17:54:25.575Z,13.00
2023-04-15T17:56:52.926Z,12.90
2023-04-15T17:59:19.850Z,12.90
2023-04-15T18:01:50.913Z,12.90
2023-04-15T18:04:18.579Z,12.80
2023-04-15T18:06:52.152Z,12.80
2023-04-15T18:09:19.607Z,12.80
2023-04-15T18:11:53.933Z,12.80
2023-04-15T18:17:43.600Z,12.80
2023-04-15T18:23:00.476Z,12.70
2023-04-15T18:25:39.403Z,12.70
2023-04-15T18:28:07.264Z,13.00
2023-04-15T18:30:38.874Z,12.60
2023-04-15T18:33:06.539Z,12.50
2023-04-15T18:36:24.745Z,12.50
2023-04-15T18:41:37.570Z,12.30
2023-04-15T18:50:25.969Z,12.10
2023-04-15T18:52:53.135Z,11.90
2023-04-15T18:55:22.722Z,11.80
2023-04-15T18:57:49.521Z,11.80
2023-04-15T19:00:17.600Z,11.70
2023-04-15T19:02:44.673Z,11.70
2023-04-15T19:05:11.811Z,11.60
2023-04-15T19:07:41.878Z,11.50
2023-04-15T19:10:11.870Z,11.50
2023-04-15T19:12:40.104Z,11.50
2023-04-15T19:15:07.730Z,11.50
2023-04-15T19:17:37.920Z,11.30
2023-04-15T19:20:05.279Z,11.40
2023-04-15T19:23:01.381Z,11.40
2023-04-15T19:25:28.325Z,11.30
2023-04-15T19:27:55.348Z,11.30
2023-04-15T19:30:23.025Z,11.30
2023-04-15T19:32:49.932Z,11.20
2023-04-15T19:35:17.228Z,11.20
2023-04-15T19:37:44.939Z,11.10
2023-04-15T19:40:12.359Z,11.10
2023-04-15T19:42:39.617Z,11.10
2023-04-15T19:45:15.840Z,11.00
2023-04-15T19:47:49.547Z,11.00
2023-04-15T19:50:26.346Z,10.90
2023-04-15T19:52:53.768Z,10.90
2023-04-15T19:55:23.758Z,10.80
2023-04-15T19:57:51.662Z,10.70
2023-04-15T20:00:18.761Z,10.70
2023-04-15T20:02:48.853Z,10.70
2023-04-15T20:05:16.489Z,10.70
2023-04-15T20:07:48.567Z,10.60
2023-04-15T20:10:15.620Z,10.60
2023-04-15T20:12:50.747Z,10.50
2023-04-15T20:15:19.684Z,10.40
2023-04-15T20:17:50.644Z,10.40
2023-04-15T20:20:17.633Z,10.40
2023-04-15T20:22:48.112Z,10.40
2023-04-15T20:25:15.147Z,10.30
2023-04-15T20:27:51.780Z,10.10
2023-04-15T20:30:18.868Z,10.20
2023-04-15T20:32:49.133Z,10.10
2023-04-15T20:35:16.161Z,10.10
2023-04-15T20:37:44.071Z,10.10
2023-04-15T20:40:11.984Z,10.10
2023-04-15T20:42:39.112Z,10.00
2023-04-15T20:45:07.227Z,10.00
2023-04-15T20:47:34.179Z,10.00
2023-04-15T20:50:04.130Z,10.00
2023-04-15T20:52:31.231Z,10.00
2023-04-15T20:55:01.294Z,10.00
2023-04-15T20:57:30.360Z,10.00
2023-04-15T20:59:57.751Z,10.10
2023-04-15T21:02:28.036Z,10.10
2023-04-15T21:04:55.026Z,10.10
2023-04-15T21:07:27.001Z,10.10
2023-04-15T21:09:55.437Z,10.10
2023-04-15T21:12:22.258Z,10.10
2023-04-15T21:14:52.488Z,10.10
2023-04-15T21:17:23.650Z,10.20
2023-04-15T21:19:50.504Z,10.20
2023-04-15T21:22:17.338Z,10.20
2023-04-15T21:24:47.093Z,10.20
2023-04-15T21:27:17.396Z,10.10
2023-04-15T21:29:45.188Z,10.20
2023-04-15T21:32:12.813Z,10.20
2023-04-15T21:34:40.097Z,10.20
2023-04-15T21:37:06.825Z,10.20
2023-04-15T21:39:36.951Z,10.20
2023-04-15T21:42:04.493Z,10.20
2023-04-15T21:44:31.381Z,10.20
2023-04-15T21:46:58.627Z,10.30
2023-04-15T21:49:28.457Z,10.00
2023-04-15T21:51:55.574Z,10.00
2023-04-15T21:54:22.397Z,10.00
2023-04-15T21:56:51.128Z,9.90
2023-04-15T21:59:18.205Z,9.90
2023-04-15T22:01:45.345Z,9.80
2023-04-15T22:04:14.772Z,9.80
2023-04-15T22:06:42.066Z,9.70
2023-04-15T22:09:10.113Z,9.60
2023-04-15T22:11:41.404Z,9.60
2023-04-15T22:14:09.231Z,9.60
2023-04-15T22:16:36.198Z,9.50
2023-04-15T22:19:06.387Z,9.50
2023-04-15T22:21:33.281Z,9.40
2023-04-15T22:24:37.226Z,9.40
2023-04-15T22:26:52.119Z,9.40
2023-04-15T22:29:19.272Z,9.40
2023-04-15T22:31:46.405Z,9.30
2023-04-15T22:34:20.695Z,9.30
2023-04-15T22:37:06.053Z,9.30
2023-04-15T22:39:33.221Z,9.20
2023-04-15T22:42:03.466Z,9.20
2023-04-15T22:44:33.089Z,9.20
2023-04-15T22:47:02.931Z,9.30
2023-04-15T22:49:31.138Z,9.20
2023-04-15T22:51:58.156Z,9.10
2023-04-15T22:54:31.446Z,9.00
2023-04-15T22:56:58.339Z,9.00
2023-04-15T22:59:26.064Z,9.00
2023-04-15T23:01:53.494Z,9.10
2023-04-15T23:04:26.405Z,8.90
2023-04-15T23:06:54.099Z,8.90
2023-04-15T23:09:22.696Z,8.90
2023-04-15T23:11:49.908Z,8.80
2023-04-15T23:14:16.820Z,8.80
2023-04-15T23:16:45.692Z,8.80
2023-04-15T23:19:12.804Z,8.70
2023-04-15T23:21:42.573Z,8.70
2023-04-15T23:24:10.076Z,8.70
2023-04-15T23:26:40.053Z,8.70
2023-04-15T23:29:08.198Z,8.70
2023-04-15T23:31:35.641Z,8.60
2023-04-15T23:34:03.280Z,8.60
2023-04-15T23:36:30.708Z,8.50
2023-04-15T23:39:00.875Z,8.70
2023-04-15T23:41:38.499Z,8.60
2023-04-15T23:44:05.769Z,8.60
2023-04-15T23:46:36.141Z,8.50
2023-04-15T23:49:03.237Z,8.50
2023-04-15T23:51:34.371Z,8.80
2023-04-15T23:54:01.368Z,8.50
2023-04-15T23:56:30.956Z,8.50
2023-04-15T23:58:58.035Z,8.40
